Weather at Plockton Airstrip

Public forecast

Using degrees Celsius for public forecast. Weather courtesy of forecast.io.

Closest aviation weather report (METAR) to Plockton Airstrip

Closest report is Oban Airport, 53.1 nm (98.4 km) S.

2024/05/21 12:50 (retrieved 17 minutes ago)

EGEO 211250Z 28008KT CAVOK 18/06 Q1011

Closest aviation forecast (TAF) to Plockton Airstrip

Closest forecast is RAF Lossiemouth, 78.5 nm (145.3 km) ENE.

2024/05/21 12:24 Ammendment (retrieved 43 minutes ago)

AMD EGQS 211217Z 2112/2206 08012KT CAVOK TEMPO 2112/2114 0600 FG SCT001 TEMPO 2113/2119 5000 SHRA SCT030CB PROB40 TEMPO 2114/2118 12015G25KT 3000 +TSGS +SHRA BKN020CB PROB30 2122/2206 2000 BR SCT004